To NAV CANADA Home Page Login to a new session Search on AWWS site Disclaimer Vers la page française équivalente Tips FAQ What's new on the site To the Forecasts and Observations / NOTAM section To "File a Flight Plan" website Publications and other links Update of the User's profile FIC Telephone Numbers My Weather Data Folder Route Weather Data Regional Weather Data Local Weather Data To the Forecasts and Observations / NOTAM section
Request Generated 10/20/2021 at 20:58:59 UTC . Weather information available at that time is displayed.

METAR/TAF

CORAL HARBOUR/NU    

METAR CYZS 202000Z 04021G27KT 15SM FEW035 BKN055 BKN075 BKN210 01/M03 A3020 RMK SC2SC4AC1CI1 CI TR SLP233=
METAR CYZS 201900Z 01014KT 15SM SCT035 BKN055 BKN075 02/M02 A3019 RMK SC3SC3AC1 SLP232=
METAR CYZS 201800Z CCA 02013G25KT 15SM BKN050 BKN075 01/M02 A3017 RMK SC5AC2 SLP225=
METAR CYZS 201800Z 02013G25KT 15SM SCT050 BKN075 01/M02 A3017 RMK SC5AC2 SLP225=

TAF AMD CYZS 201847Z 2019/2107 03015G25KT P6SM BKN015 BKN050 TEMPO
2019/2020 SCT015 BKN050
FM202000 03020G30KT P6SM SCT008 BKN015 BKN040 TEMPO 2020/2107 2SM
-SN BLSN BKN008 PROB40 2021/2104 03025G35KT 1SM -SN BLSN
RMK NXT FCST BY 210100Z=
Your time UTC time
Weather data provided by Environment Canada and NAV CANADA